Decoded Metar for KW96 ( in ) (IATA:) | Meteo·Mobile Aviation Weather
aviador You're here:

KW96 Decoded Metar

in
Report Time2020-02-22 22:15:00
UTC Time2020-02-22 22:12:27
Flight Rules vfr VFR
Wind200° at 04 kt
Visibility9999 m
Phenomena:N/A
Clouds:N/A
Expected CloudBase > 6,800 ft AGL from Temp-Dew spread
CeilingNone
Temp11°C
Dew Point-6°C (30% RH)
AAT6.9°C
QNH1026 hPa
Raw Report
KW96 222215Z AUTO 20004KT 10SM CLR 11/M06 A3029 RMK AO1
T01081065=

Extra information for KW96:More info

Social comments